sensor_id;sensor_type;location;lat;lon;timestamp;temperature;humidity
5978;DHT22;3015;51.390;12.256;2022-11-12T00:00:29;2.40;1.00
5978;DHT22;3015;51.390;12.256;2022-11-12T00:02:55;2.30;1.00
5978;DHT22;3015;51.390;12.256;2022-11-12T00:05:21;2.30;1.00
5978;DHT22;3015;51.390;12.256;2022-11-12T00:07:46;2.30;99.90
5978;DHT22;3015;51.390;12.256;2022-11-12T00:10:12;2.20;99.90
5978;DHT22;3015;51.390;12.256;2022-11-12T00:12:37;2.20;99.90
5978;DHT22;3015;51.390;12.256;2022-11-12T00:15:03;2.20;99.90
5978;DHT22;3015;51.390;12.256;2022-11-12T00:17:29;2.20;99.90
5978;DHT22;3015;51.390;12.256;2022-11-12T00:19:55;2.20;99.90
5978;DHT22;3015;51.390;12.256;2022-11-12T00:22:21;2.30;1.00
5978;DHT22;3015;51.390;12.256;2022-11-12T00:24:46;2.20;99.90
5978;DHT22;3015;51.390;12.256;2022-11-12T00:27:12;2.30;1.00
5978;DHT22;3015;51.390;12.256;2022-11-12T00:29:38;2.20;99.90
5978;DHT22;3015;51.390;12.256;2022-11-12T00:32:05;2.20;99.90
5978;DHT22;3015;51.390;12.256;2022-11-12T00:34:31;2.10;99.90
5978;DHT22;3015;51.390;12.256;2022-11-12T00:36:57;2.10;99.90
5978;DHT22;3015;51.390;12.256;2022-11-12T00:39:23;2.00;99.90
5978;DHT22;3015;51.390;12.256;2022-11-12T00:41:49;2.00;99.90
5978;DHT22;3015;51.390;12.256;2022-11-12T00:44:14;2.00;1.00
5978;DHT22;3015;51.390;12.256;2022-11-12T00:46:40;2.00;1.00
5978;DHT22;3015;51.390;12.256;2022-11-12T00:49:06;1.90;1.00
5978;DHT22;3015;51.390;12.256;2022-11-12T00:51:31;1.90;1.00
5978;DHT22;3015;51.390;12.256;2022-11-12T00:53:57;1.90;1.00
5978;DHT22;3015;51.390;12.256;2022-11-12T00:56:22;1.90;1.00
5978;DHT22;3015;51.390;12.256;2022-11-12T00:58:48;1.90;1.00
5978;DHT22;3015;51.390;12.256;2022-11-12T01:01:14;1.80;1.00
5978;DHT22;3015;51.390;12.256;2022-11-12T01:03:40;1.80;1.00
5978;DHT22;3015;51.390;12.256;2022-11-12T01:06:12;1.80;99.90
5978;DHT22;3015;51.390;12.256;2022-11-12T01:08:38;1.80;1.00
5978;DHT22;3015;51.390;12.256;2022-11-12T01:11:12;1.70;1.00
5978;DHT22;3015;51.390;12.256;2022-11-12T01:13:42;1.70;27.90
5978;DHT22;3015;51.390;12.256;2022-11-12T01:16:16;1.70;99.90
5978;DHT22;3015;51.390;12.256;2022-11-12T01:18:44;1.70;1.00
5978;DHT22;3015;51.390;12.256;2022-11-12T01:21:11;1.60;1.00
5978;DHT22;3015;51.390;12.256;2022-11-12T01:23:39;1.60;1.00
5978;DHT22;3015;51.390;12.256;2022-11-12T01:26:06;1.60;1.00
5978;DHT22;3015;51.390;12.256;2022-11-12T01:28:32;1.50;1.00
5978;DHT22;3015;51.390;12.256;2022-11-12T01:31:12;1.50;1.00
5978;DHT22;3015;51.390;12.256;2022-11-12T01:37:00;1.50;1.00
5978;DHT22;3015;51.390;12.256;2022-11-12T01:39:26;1.60;99.90
5978;DHT22;3015;51.390;12.256;2022-11-12T01:41:51;1.60;1.00
5978;DHT22;3015;51.390;12.256;2022-11-12T01:44:21;1.50;1.00
5978;DHT22;3015;51.390;12.256;2022-11-12T01:49:27;1.40;1.00
5978;DHT22;3015;51.390;12.256;2022-11-12T01:51:55;1.40;1.00
5978;DHT22;3015;51.390;12.256;2022-11-12T01:54:23;1.50;1.00
5978;DHT22;3015;51.390;12.256;2022-11-12T01:56:49;1.40;1.00
5978;DHT22;3015;51.390;12.256;2022-11-12T01:59:25;1.40;1.00
5978;DHT22;3015;51.390;12.256;2022-11-12T02:01:52;1.30;1.00
5978;DHT22;3015;51.390;12.256;2022-11-12T02:04:18;1.40;99.90
5978;DHT22;3015;51.390;12.256;2022-11-12T02:06:44;1.30;56.80
5978;DHT22;3015;51.390;12.256;2022-11-12T02:09:12;1.30;99.90
5978;DHT22;3015;51.390;12.256;2022-11-12T02:11:38;1.40;99.90
5978;DHT22;3015;51.390;12.256;2022-11-12T02:14:04;1.40;89.80
5978;DHT22;3015;51.390;12.256;2022-11-12T02:16:31;1.30;1.00
5978;DHT22;3015;51.390;12.256;2022-11-12T02:18:58;1.30;1.00
5978;DHT22;3015;51.390;12.256;2022-11-12T02:21:24;1.30;99.90
5978;DHT22;3015;51.390;12.256;2022-11-12T02:24:02;1.30;52.00
5978;DHT22;3015;51.390;12.256;2022-11-12T02:26:42;1.20;39.40
5978;DHT22;3015;51.390;12.256;2022-11-12T02:29:09;1.20;99.90
5978;DHT22;3015;51.390;12.256;2022-11-12T02:31:35;1.20;99.90
5978;DHT22;3015;51.390;12.256;2022-11-12T02:34:01;1.20;99.90
5978;DHT22;3015;51.390;12.256;2022-11-12T02:36:26;1.20;99.90
5978;DHT22;3015;51.390;12.256;2022-11-12T02:38:52;1.10;99.90
5978;DHT22;3015;51.390;12.256;2022-11-12T02:41:18;1.10;99.90
5978;DHT22;3015;51.390;12.256;2022-11-12T02:43:43;1.00;1.00
5978;DHT22;3015;51.390;12.256;2022-11-12T02:46:09;1.00;99.90
5978;DHT22;3015;51.390;12.256;2022-11-12T02:48:35;1.00;99.90
5978;DHT22;3015;51.390;12.256;2022-11-12T02:51:01;1.20;1.00
5978;DHT22;3015;51.390;12.256;2022-11-12T02:53:27;1.10;1.00
5978;DHT22;3015;51.390;12.256;2022-11-12T02:55:52;1.10;99.90
5978;DHT22;3015;51.390;12.256;2022-11-12T02:58:18;1.00;99.90
5978;DHT22;3015;51.390;12.256;2022-11-12T03:00:43;1.00;99.90
5978;DHT22;3015;51.390;12.256;2022-11-12T03:03:09;0.90;99.90
5978;DHT22;3015;51.390;12.256;2022-11-12T03:05:35;0.90;99.90
5978;DHT22;3015;51.390;12.256;2022-11-12T03:08:04;0.90;99.90
5978;DHT22;3015;51.390;12.256;2022-11-12T03:10:31;0.90;1.00
5978;DHT22;3015;51.390;12.256;2022-11-12T03:12:58;0.80;1.00
5978;DHT22;3015;51.390;12.256;2022-11-12T03:15:24;0.80;1.00
5978;DHT22;3015;51.390;12.256;2022-11-12T03:17:50;0.80;99.90
5978;DHT22;3015;51.390;12.256;2022-11-12T03:20:16;0.80;1.00
5978;DHT22;3015;51.390;12.256;2022-11-12T03:22:41;0.80;1.00
5978;DHT22;3015;51.390;12.256;2022-11-12T03:25:08;0.80;99.90
5978;DHT22;3015;51.390;12.256;2022-11-12T03:27:34;0.70;1.00
5978;DHT22;3015;51.390;12.256;2022-11-12T03:29:59;0.80;1.00
5978;DHT22;3015;51.390;12.256;2022-11-12T03:32:25;0.80;99.90
5978;DHT22;3015;51.390;12.256;2022-11-12T03:34:50;0.70;99.90
5978;DHT22;3015;51.390;12.256;2022-11-12T03:37:16;0.70;99.90
5978;DHT22;3015;51.390;12.256;2022-11-12T03:39:42;0.70;26.00
5978;DHT22;3015;51.390;12.256;2022-11-12T03:42:08;0.60;71.60
5978;DHT22;3015;51.390;12.256;2022-11-12T03:44:33;0.60;1.00
5978;DHT22;3015;51.390;12.256;2022-11-12T03:46:59;0.60;1.00
5978;DHT22;3015;51.390;12.256;2022-11-12T03:49:25;0.60;99.90
5978;DHT22;3015;51.390;12.256;2022-11-12T03:51:50;0.60;62.00
5978;DHT22;3015;51.390;12.256;2022-11-12T03:54:16;0.60;1.00
5978;DHT22;3015;51.390;12.256;2022-11-12T03:56:41;0.60;14.70
5978;DHT22;3015;51.390;12.256;2022-11-12T03:59:07;0.60;99.90
5978;DHT22;3015;51.390;12.256;2022-11-12T04:01:33;0.70;1.00
5978;DHT22;3015;51.390;12.256;2022-11-12T04:03:59;0.60;1.00
5978;DHT22;3015;51.390;12.256;2022-11-12T04:06:25;0.60;1.00
5978;DHT22;3015;51.390;12.256;2022-11-12T04:09:09;0.50;1.00
5978;DHT22;3015;51.390;12.256;2022-11-12T04:11:34;0.50;44.70
5978;DHT22;3015;51.390;12.256;2022-11-12T04:14:00;0.50;1.00
5978;DHT22;3015;51.390;12.256;2022-11-12T04:16:26;0.60;1.00
5978;DHT22;3015;51.390;12.256;2022-11-12T04:19:11;0.50;1.00
5978;DHT22;3015;51.390;12.256;2022-11-12T04:24:28;0.50;1.00
5978;DHT22;3015;51.390;12.256;2022-11-12T04:27:31;0.40;1.00
5978;DHT22;3015;51.390;12.256;2022-11-12T04:29:57;0.40;1.00
5978;DHT22;3015;51.390;12.256;2022-11-12T04:32:47;0.40;99.90
5978;DHT22;3015;51.390;12.256;2022-11-12T04:35:13;0.40;45.60
5978;DHT22;3015;51.390;12.256;2022-11-12T04:37:39;0.40;99.90
5978;DHT22;3015;51.390;12.256;2022-11-12T04:40:15;0.40;1.00
5978;DHT22;3015;51.390;12.256;2022-11-12T04:43:00;0.40;1.00
5978;DHT22;3015;51.390;12.256;2022-11-12T04:45:47;0.40;1.00
5978;DHT22;3015;51.390;12.256;2022-11-12T04:48:13;0.40;1.00
5978;DHT22;3015;51.390;12.256;2022-11-12T04:53:08;0.30;1.00
5978;DHT22;3015;51.390;12.256;2022-11-12T04:55:33;0.20;1.00
5978;DHT22;3015;51.390;12.256;2022-11-12T04:57:59;0.20;1.00
5978;DHT22;3015;51.390;12.256;2022-11-12T05:00:25;0.20;1.00
5978;DHT22;3015;51.390;12.256;2022-11-12T05:02:50;0.20;99.90
5978;DHT22;3015;51.390;12.256;2022-11-12T05:05:16;0.20;99.90
5978;DHT22;3015;51.390;12.256;2022-11-12T05:07:41;0.20;99.90
5978;DHT22;3015;51.390;12.256;2022-11-12T05:10:08;0.10;99.90
5978;DHT22;3015;51.390;12.256;2022-11-12T05:12:34;0.10;99.90
5978;DHT22;3015;51.390;12.256;2022-11-12T05:15:00;0.10;99.90
5978;DHT22;3015;51.390;12.256;2022-11-12T05:17:25;0.10;99.90
5978;DHT22;3015;51.390;12.256;2022-11-12T05:19:51;0.10;1.00
5978;DHT22;3015;51.390;12.256;2022-11-12T05:22:17;0.00;1.00
5978;DHT22;3015;51.390;12.256;2022-11-12T05:24:43;0.10;99.90
5978;DHT22;3015;51.390;12.256;2022-11-12T05:27:17;0.00;1.00
5978;DHT22;3015;51.390;12.256;2022-11-12T05:29:43;0.00;1.00
5978;DHT22;3015;51.390;12.256;2022-11-12T05:32:14;0.00;1.00
5978;DHT22;3015;51.390;12.256;2022-11-12T05:34:40;0.00;1.00
5978;DHT22;3015;51.390;12.256;2022-11-12T05:37:07;0.00;1.00
5978;DHT22;3015;51.390;12.256;2022-11-12T05:39:33;0.00;1.00
5978;DHT22;3015;51.390;12.256;2022-11-12T05:41:58;0.00;1.00
5978;DHT22;3015;51.390;12.256;2022-11-12T05:44:24;-0.10;1.00
5978;DHT22;3015;51.390;12.256;2022-11-12T05:46:50;-0.10;99.90
5978;DHT22;3015;51.390;12.256;2022-11-12T05:49:16;-0.10;99.90
5978;DHT22;3015;51.390;12.256;2022-11-12T05:51:42;-0.10;1.00
5978;DHT22;3015;51.390;12.256;2022-11-12T05:54:08;-0.10;1.00
5978;DHT22;3015;51.390;12.256;2022-11-12T05:56:35;-0.10;1.00
5978;DHT22;3015;51.390;12.256;2022-11-12T05:59:02;-0.10;1.00
5978;DHT22;3015;51.390;12.256;2022-11-12T06:01:28;-0.20;99.90
5978;DHT22;3015;51.390;12.256;2022-11-12T06:03:55;-0.20;99.90
5978;DHT22;3015;51.390;12.256;2022-11-12T06:06:20;0.00;99.90
5978;DHT22;3015;51.390;12.256;2022-11-12T06:08:46;-0.10;99.90
5978;DHT22;3015;51.390;12.256;2022-11-12T06:11:12;-0.10;99.90
5978;DHT22;3015;51.390;12.256;2022-11-12T06:13:37;-0.10;99.90
5978;DHT22;3015;51.390;12.256;2022-11-12T06:16:03;-0.20;99.90
5978;DHT22;3015;51.390;12.256;2022-11-12T06:18:29;-0.20;1.00
5978;DHT22;3015;51.390;12.256;2022-11-12T06:21:02;-0.20;99.90
5978;DHT22;3015;51.390;12.256;2022-11-12T06:23:58;-0.30;99.90
5978;DHT22;3015;51.390;12.256;2022-11-12T06:26:25;-0.30;99.90
5978;DHT22;3015;51.390;12.256;2022-11-12T06:28:51;-0.30;99.90
5978;DHT22;3015;51.390;12.256;2022-11-12T06:31:18;-0.30;1.00
5978;DHT22;3015;51.390;12.256;2022-11-12T06:33:44;-0.30;99.90
5978;DHT22;3015;51.390;12.256;2022-11-12T06:36:12;-0.30;1.00
5978;DHT22;3015;51.390;12.256;2022-11-12T06:38:39;-0.20;1.00
5978;DHT22;3015;51.390;12.256;2022-11-12T06:41:06;-0.20;1.00
5978;DHT22;3015;51.390;12.256;2022-11-12T06:43:33;-0.20;99.90
5978;DHT22;3015;51.390;12.256;2022-11-12T06:46:00;-0.20;99.90
5978;DHT22;3015;51.390;12.256;2022-11-12T06:48:27;-0.10;99.90
5978;DHT22;3015;51.390;12.256;2022-11-12T06:50:53;-0.10;1.00
5978;DHT22;3015;51.390;12.256;2022-11-12T06:53:19;-0.10;1.00
5978;DHT22;3015;51.390;12.256;2022-11-12T06:55:44;-0.10;1.00
5978;DHT22;3015;51.390;12.256;2022-11-12T06:58:10;0.00;1.00
5978;DHT22;3015;51.390;12.256;2022-11-12T07:00:36;0.00;1.00
5978;DHT22;3015;51.390;12.256;2022-11-12T07:03:07;0.10;1.00
5978;DHT22;3015;51.390;12.256;2022-11-12T07:05:36;0.20;1.00
5978;DHT22;3015;51.390;12.256;2022-11-12T07:08:03;0.20;1.00
5978;DHT22;3015;51.390;12.256;2022-11-12T07:10:29;0.20;1.00
5978;DHT22;3015;51.390;12.256;2022-11-12T07:12:55;0.20;99.90
5978;DHT22;3015;51.390;12.256;2022-11-12T07:15:20;0.30;99.90
5978;DHT22;3015;51.390;12.256;2022-11-12T07:17:46;0.30;99.90
5978;DHT22;3015;51.390;12.256;2022-11-12T07:20:12;0.40;99.90
5978;DHT22;3015;51.390;12.256;2022-11-12T07:22:38;0.50;99.90
5978;DHT22;3015;51.390;12.256;2022-11-12T07:25:04;0.60;99.90
5978;DHT22;3015;51.390;12.256;2022-11-12T07:27:30;0.70;99.90
5978;DHT22;3015;51.390;12.256;2022-11-12T07:29:55;0.80;99.90
5978;DHT22;3015;51.390;12.256;2022-11-12T07:32:21;0.90;99.90
5978;DHT22;3015;51.390;12.256;2022-11-12T07:34:47;1.00;99.90
5978;DHT22;3015;51.390;12.256;2022-11-12T07:37:12;1.10;99.90
5978;DHT22;3015;51.390;12.256;2022-11-12T07:39:38;1.20;99.90
5978;DHT22;3015;51.390;12.256;2022-11-12T07:42:03;1.40;99.90
5978;DHT22;3015;51.390;12.256;2022-11-12T07:44:29;1.60;96.20
5978;DHT22;3015;51.390;12.256;2022-11-12T07:46:55;1.70;99.90
5978;DHT22;3015;51.390;12.256;2022-11-12T07:49:20;1.90;99.40
5978;DHT22;3015;51.390;12.256;2022-11-12T07:51:46;2.10;99.90
5978;DHT22;3015;51.390;12.256;2022-11-12T07:54:11;2.20;99.90
5978;DHT22;3015;51.390;12.256;2022-11-12T07:56:38;2.40;99.90
5978;DHT22;3015;51.390;12.256;2022-11-12T07:59:03;2.80;1.00
5978;DHT22;3015;51.390;12.256;2022-11-12T08:01:37;4.00;1.00
5978;DHT22;3015;51.390;12.256;2022-11-12T08:04:05;6.50;99.90
5978;DHT22;3015;51.390;12.256;2022-11-12T08:06:32;9.20;99.90
5978;DHT22;3015;51.390;12.256;2022-11-12T08:08:59;11.50;70.90
5978;DHT22;3015;51.390;12.256;2022-11-12T08:11:26;13.50;1.00
5978;DHT22;3015;51.390;12.256;2022-11-12T08:13:51;15.20;99.90
5978;DHT22;3015;51.390;12.256;2022-11-12T08:16:17;16.70;99.90
5978;DHT22;3015;51.390;12.256;2022-11-12T08:18:43;17.80;99.90
5978;DHT22;3015;51.390;12.256;2022-11-12T08:21:12;18.90;99.90
5978;DHT22;3015;51.390;12.256;2022-11-12T08:23:38;19.70;99.90
5978;DHT22;3015;51.390;12.256;2022-11-12T08:26:07;20.50;99.90
5978;DHT22;3015;51.390;12.256;2022-11-12T08:28:34;21.20;99.90
5978;DHT22;3015;51.390;12.256;2022-11-12T08:31:05;21.70;99.90
5978;DHT22;3015;51.390;12.256;2022-11-12T08:33:31;22.50;99.90
5978;DHT22;3015;51.390;12.256;2022-11-12T08:35:58;22.70;99.90
5978;DHT22;3015;51.390;12.256;2022-11-12T08:38:26;22.80;99.90
5978;DHT22;3015;51.390;12.256;2022-11-12T08:40:52;23.40;99.90
5978;DHT22;3015;51.390;12.256;2022-11-12T08:43:17;24.00;99.90
5978;DHT22;3015;51.390;12.256;2022-11-12T08:45:43;24.20;99.90
5978;DHT22;3015;51.390;12.256;2022-11-12T08:48:13;24.20;99.90
5978;DHT22;3015;51.390;12.256;2022-11-12T08:50:40;24.50;99.90
5978;DHT22;3015;51.390;12.256;2022-11-12T08:53:11;24.10;99.90
5978;DHT22;3015;51.390;12.256;2022-11-12T08:55:37;24.00;99.90
5978;DHT22;3015;51.390;12.256;2022-11-12T08:58:03;23.30;99.90
5978;DHT22;3015;51.390;12.256;2022-11-12T09:00:34;23.20;99.90
5978;DHT22;3015;51.390;12.256;2022-11-12T09:03:05;23.60;99.90
5978;DHT22;3015;51.390;12.256;2022-11-12T09:05:33;23.30;99.90
5978;DHT22;3015;51.390;12.256;2022-11-12T09:08:08;23.70;99.90
5978;DHT22;3015;51.390;12.256;2022-11-12T09:10:34;24.00;99.90
5978;DHT22;3015;51.390;12.256;2022-11-12T09:13:01;24.10;99.90
5978;DHT22;3015;51.390;12.256;2022-11-12T09:15:28;23.40;99.90
5978;DHT22;3015;51.390;12.256;2022-11-12T09:17:59;22.90;99.90
5978;DHT22;3015;51.390;12.256;2022-11-12T09:20:26;22.10;99.90
5978;DHT22;3015;51.390;12.256;2022-11-12T09:23:15;20.90;99.90
5978;DHT22;3015;51.390;12.256;2022-11-12T09:28:15;20.10;99.90
5978;DHT22;3015;51.390;12.256;2022-11-12T09:30:46;18.60;99.90
5978;DHT22;3015;51.390;12.256;2022-11-12T09:33:16;17.60;99.90
5978;DHT22;3015;51.390;12.256;2022-11-12T09:35:43;17.00;99.90
5978;DHT22;3015;51.390;12.256;2022-11-12T09:38:10;16.60;99.90
5978;DHT22;3015;51.390;12.256;2022-11-12T09:43:31;15.70;99.90
5978;DHT22;3015;51.390;12.256;2022-11-12T09:48:39;15.30;99.90
5978;DHT22;3015;51.390;12.256;2022-11-12T09:51:15;14.80;99.90
5978;DHT22;3015;51.390;12.256;2022-11-12T09:56:12;14.50;99.90
5978;DHT22;3015;51.390;12.256;2022-11-12T09:58:38;14.20;99.90
5978;DHT22;3015;51.390;12.256;2022-11-12T10:01:14;14.20;99.90
5978;DHT22;3015;51.390;12.256;2022-11-12T10:06:48;14.10;99.90
5978;DHT22;3015;51.390;12.256;2022-11-12T10:09:27;14.00;99.90
5978;DHT22;3015;51.390;12.256;2022-11-12T10:15:16;14.20;99.90
5978;DHT22;3015;51.390;12.256;2022-11-12T10:18:27;14.10;99.90
5978;DHT22;3015;51.390;12.256;2022-11-12T10:20:58;14.50;99.90
5978;DHT22;3015;51.390;12.256;2022-11-12T10:23:42;14.90;99.90
5978;DHT22;3015;51.390;12.256;2022-11-12T10:26:15;15.00;99.90
5978;DHT22;3015;51.390;12.256;2022-11-12T10:31:30;15.20;99.90
5978;DHT22;3015;51.390;12.256;2022-11-12T10:36:48;15.20;99.90
5978;DHT22;3015;51.390;12.256;2022-11-12T10:39:37;15.30;99.90
5978;DHT22;3015;51.390;12.256;2022-11-12T10:42:11;15.50;99.90
5978;DHT22;3015;51.390;12.256;2022-11-12T10:44:38;15.60;99.90
5978;DHT22;3015;51.390;12.256;2022-11-12T10:47:21;15.70;99.90
5978;DHT22;3015;51.390;12.256;2022-11-12T10:53:28;15.90;99.90
5978;DHT22;3015;51.390;12.256;2022-11-12T10:55:57;16.20;99.90
5978;DHT22;3015;51.390;12.256;2022-11-12T10:58:23;16.40;99.90
5978;DHT22;3015;51.390;12.256;2022-11-12T11:00:56;16.70;99.90
5978;DHT22;3015;51.390;12.256;2022-11-12T11:03:35;16.80;99.90
5978;DHT22;3015;51.390;12.256;2022-11-12T11:08:45;16.90;99.90
5978;DHT22;3015;51.390;12.256;2022-11-12T11:13:44;17.00;99.90
5978;DHT22;3015;51.390;12.256;2022-11-12T11:16:19;17.00;99.90
5978;DHT22;3015;51.390;12.256;2022-11-12T11:18:54;17.00;99.90
5978;DHT22;3015;51.390;12.256;2022-11-12T11:24:38;17.20;99.90
5978;DHT22;3015;51.390;12.256;2022-11-12T11:41:41;17.60;99.90
5978;DHT22;3015;51.390;12.256;2022-11-12T11:47:38;18.50;99.90
5978;DHT22;3015;51.390;12.256;2022-11-12T11:50:34;19.20;99.90
5978;DHT22;3015;51.390;12.256;2022-11-12T11:53:26;19.40;99.90
5978;DHT22;3015;51.390;12.256;2022-11-12T11:55:57;19.40;99.90
5978;DHT22;3015;51.390;12.256;2022-11-12T12:01:25;19.70;99.90
5978;DHT22;3015;51.390;12.256;2022-11-12T12:09:47;19.80;99.90
5978;DHT22;3015;51.390;12.256;2022-11-12T12:12:28;19.80;99.90
5978;DHT22;3015;51.390;12.256;2022-11-12T12:21:16;19.20;99.90
5978;DHT22;3015;51.390;12.256;2022-11-12T12:23:57;19.10;99.90
5978;DHT22;3015;51.390;12.256;2022-11-12T12:29:16;18.60;99.90
5978;DHT22;3015;51.390;12.256;2022-11-12T12:32:05;18.30;99.90
5978;DHT22;3015;51.390;12.256;2022-11-12T12:34:55;18.20;99.90
5978;DHT22;3015;51.390;12.256;2022-11-12T12:40:18;18.10;99.90
5978;DHT22;3015;51.390;12.256;2022-11-12T12:43:09;17.90;99.90
5978;DHT22;3015;51.390;12.256;2022-11-12T12:45:45;17.80;99.90
5978;DHT22;3015;51.390;12.256;2022-11-12T12:48:26;17.80;99.90
5978;DHT22;3015;51.390;12.256;2022-11-12T12:50:53;17.90;99.90
5978;DHT22;3015;51.390;12.256;2022-11-12T12:55:59;17.70;99.90
5978;DHT22;3015;51.390;12.256;2022-11-12T12:58:32;17.60;99.90
5978;DHT22;3015;51.390;12.256;2022-11-12T13:01:12;17.60;99.90
5978;DHT22;3015;51.390;12.256;2022-11-12T13:04:00;17.80;99.90
5978;DHT22;3015;51.390;12.256;2022-11-12T13:06:38;18.00;99.90
5978;DHT22;3015;51.390;12.256;2022-11-12T13:38:00;19.20;99.90
5978;DHT22;3015;51.390;12.256;2022-11-12T13:46:09;18.40;99.90
5978;DHT22;3015;51.390;12.256;2022-11-12T13:48:45;18.90;99.90
5978;DHT22;3015;51.390;12.256;2022-11-12T13:51:12;19.20;99.90
5978;DHT22;3015;51.390;12.256;2022-11-12T13:53:38;19.00;99.90
5978;DHT22;3015;51.390;12.256;2022-11-12T13:56:04;18.50;99.90
5978;DHT22;3015;51.390;12.256;2022-11-12T13:58:32;18.50;99.90
5978;DHT22;3015;51.390;12.256;2022-11-12T14:01:03;18.80;99.90
5978;DHT22;3015;51.390;12.256;2022-11-12T14:03:44;18.50;99.90
5978;DHT22;3015;51.390;12.256;2022-11-12T14:14:58;17.80;99.90
5978;DHT22;3015;51.390;12.256;2022-11-12T14:20:38;17.10;99.90
5978;DHT22;3015;51.390;12.256;2022-11-12T14:23:10;17.00;99.90
5978;DHT22;3015;51.390;12.256;2022-11-12T14:25:54;16.60;99.90
5978;DHT22;3015;51.390;12.256;2022-11-12T14:28:32;15.90;99.90
5978;DHT22;3015;51.390;12.256;2022-11-12T14:31:00;15.70;99.90
5978;DHT22;3015;51.390;12.256;2022-11-12T14:33:28;15.30;99.90
5978;DHT22;3015;51.390;12.256;2022-11-12T14:38:35;14.20;99.90
5978;DHT22;3015;51.390;12.256;2022-11-12T14:51:14;14.20;99.90
5978;DHT22;3015;51.390;12.256;2022-11-12T14:53:48;12.10;99.90
5978;DHT22;3015;51.390;12.256;2022-11-12T14:58:54;11.80;99.90
5978;DHT22;3015;51.390;12.256;2022-11-12T15:01:32;11.20;1.00
5978;DHT22;3015;51.390;12.256;2022-11-12T15:06:36;10.70;99.90
5978;DHT22;3015;51.390;12.256;2022-11-12T15:09:03;10.50;99.90
5978;DHT22;3015;51.390;12.256;2022-11-12T15:11:42;10.20;1.00
5978;DHT22;3015;51.390;12.256;2022-11-12T15:14:18;10.10;1.00
5978;DHT22;3015;51.390;12.256;2022-11-12T15:16:46;9.80;1.00
5978;DHT22;3015;51.390;12.256;2022-11-12T15:21:55;9.30;1.00
5978;DHT22;3015;51.390;12.256;2022-11-12T15:24:28;9.20;1.00
5978;DHT22;3015;51.390;12.256;2022-11-12T15:26:55;8.80;1.00
5978;DHT22;3015;51.390;12.256;2022-11-12T15:29:31;8.60;1.00
5978;DHT22;3015;51.390;12.256;2022-11-12T15:32:02;8.30;99.90
5978;DHT22;3015;51.390;12.256;2022-11-12T15:37:26;8.00;1.00
5978;DHT22;3015;51.390;12.256;2022-11-12T15:39:58;7.90;1.00
5978;DHT22;3015;51.390;12.256;2022-11-12T15:42:41;7.70;1.00
5978;DHT22;3015;51.390;12.256;2022-11-12T15:45:15;7.40;99.90
5978;DHT22;3015;51.390;12.256;2022-11-12T15:47:41;7.10;68.00
5978;DHT22;3015;51.390;12.256;2022-11-12T15:52:39;7.00;32.40
5978;DHT22;3015;51.390;12.256;2022-11-12T15:55:07;6.70;99.90
5978;DHT22;3015;51.390;12.256;2022-11-12T15:57:39;6.80;99.90
5978;DHT22;3015;51.390;12.256;2022-11-12T16:00:20;6.60;99.90
5978;DHT22;3015;51.390;12.256;2022-11-12T16:03:11;6.40;99.90
5978;DHT22;3015;51.390;12.256;2022-11-12T16:05:37;6.10;99.90
5978;DHT22;3015;51.390;12.256;2022-11-12T16:08:03;6.10;99.90
5978;DHT22;3015;51.390;12.256;2022-11-12T16:10:30;6.10;99.90
5978;DHT22;3015;51.390;12.256;2022-11-12T16:12:58;5.90;99.90
5978;DHT22;3015;51.390;12.256;2022-11-12T16:15:25;5.80;99.90
5978;DHT22;3015;51.390;12.256;2022-11-12T16:17:51;5.70;99.90
5978;DHT22;3015;51.390;12.256;2022-11-12T16:20:27;5.60;99.90
5978;DHT22;3015;51.390;12.256;2022-11-12T16:22:53;5.40;99.90
5978;DHT22;3015;51.390;12.256;2022-11-12T16:25:20;5.30;1.00
5978;DHT22;3015;51.390;12.256;2022-11-12T16:27:46;5.20;1.00
5978;DHT22;3015;51.390;12.256;2022-11-12T16:30:18;5.20;1.00
5978;DHT22;3015;51.390;12.256;2022-11-12T16:32:45;5.20;1.00
5978;DHT22;3015;51.390;12.256;2022-11-12T16:35:11;5.10;1.00
5978;DHT22;3015;51.390;12.256;2022-11-12T16:37:38;5.00;99.90
5978;DHT22;3015;51.390;12.256;2022-11-12T16:40:15;4.90;99.90
5978;DHT22;3015;51.390;12.256;2022-11-12T16:42:40;4.90;1.00
5978;DHT22;3015;51.390;12.256;2022-11-12T16:45:11;4.70;1.00
5978;DHT22;3015;51.390;12.256;2022-11-12T16:47:52;4.70;1.00
5978;DHT22;3015;51.390;12.256;2022-11-12T16:50:20;4.70;99.90
5978;DHT22;3015;51.390;12.256;2022-11-12T16:52:47;4.80;90.10
5978;DHT22;3015;51.390;12.256;2022-11-12T16:55:13;4.60;1.00
5978;DHT22;3015;51.390;12.256;2022-11-12T16:57:38;4.50;1.00
5978;DHT22;3015;51.390;12.256;2022-11-12T17:00:06;4.60;99.90
5978;DHT22;3015;51.390;12.256;2022-11-12T17:02:32;4.50;1.00
5978;DHT22;3015;51.390;12.256;2022-11-12T17:05:01;4.40;1.00
5978;DHT22;3015;51.390;12.256;2022-11-12T17:07:27;4.40;82.10
5978;DHT22;3015;51.390;12.256;2022-11-12T17:09:53;4.30;1.00
5978;DHT22;3015;51.390;12.256;2022-11-12T17:12:18;4.20;1.00
5978;DHT22;3015;51.390;12.256;2022-11-12T17:14:44;4.20;1.00
5978;DHT22;3015;51.390;12.256;2022-11-12T17:17:09;4.20;99.90
5978;DHT22;3015;51.390;12.256;2022-11-12T17:19:35;4.10;1.00
5978;DHT22;3015;51.390;12.256;2022-11-12T17:22:01;4.00;1.00
5978;DHT22;3015;51.390;12.256;2022-11-12T17:24:26;3.90;99.90
5978;DHT22;3015;51.390;12.256;2022-11-12T17:26:53;4.20;1.00
5978;DHT22;3015;51.390;12.256;2022-11-12T17:29:18;4.00;99.90
5978;DHT22;3015;51.390;12.256;2022-11-12T17:31:47;4.00;1.00
5978;DHT22;3015;51.390;12.256;2022-11-12T17:34:16;3.90;99.90
5978;DHT22;3015;51.390;12.256;2022-11-12T17:36:41;3.80;99.90
5978;DHT22;3015;51.390;12.256;2022-11-12T17:39:09;3.80;99.90
5978;DHT22;3015;51.390;12.256;2022-11-12T17:41:35;3.70;99.30
5978;DHT22;3015;51.390;12.256;2022-11-12T17:44:02;3.70;1.00
5978;DHT22;3015;51.390;12.256;2022-11-12T17:46:28;3.90;1.00
5978;DHT22;3015;51.390;12.256;2022-11-12T17:48:54;3.70;1.00
5978;DHT22;3015;51.390;12.256;2022-11-12T17:51:23;3.60;99.90
5978;DHT22;3015;51.390;12.256;2022-11-12T17:53:49;3.50;99.90
5978;DHT22;3015;51.390;12.256;2022-11-12T17:56:20;3.40;1.00
5978;DHT22;3015;51.390;12.256;2022-11-12T17:58:47;3.40;99.90
5978;DHT22;3015;51.390;12.256;2022-11-12T18:01:16;3.40;1.00
5978;DHT22;3015;51.390;12.256;2022-11-12T18:03:43;3.30;1.00
5978;DHT22;3015;51.390;12.256;2022-11-12T18:06:11;3.30;1.00
5978;DHT22;3015;51.390;12.256;2022-11-12T18:08:37;3.30;1.00
5978;DHT22;3015;51.390;12.256;2022-11-12T18:11:03;3.20;1.00
5978;DHT22;3015;51.390;12.256;2022-11-12T18:13:29;3.20;1.00
5978;DHT22;3015;51.390;12.256;2022-11-12T18:15:54;3.20;1.00
5978;DHT22;3015;51.390;12.256;2022-11-12T18:18:20;3.30;1.00
5978;DHT22;3015;51.390;12.256;2022-11-12T18:20:46;3.20;99.90
5978;DHT22;3015;51.390;12.256;2022-11-12T18:23:11;3.20;1.00
5978;DHT22;3015;51.390;12.256;2022-11-12T18:25:37;3.20;99.90
5978;DHT22;3015;51.390;12.256;2022-11-12T18:28:04;3.20;99.90
5978;DHT22;3015;51.390;12.256;2022-11-12T18:30:30;3.10;1.00
5978;DHT22;3015;51.390;12.256;2022-11-12T18:32:56;3.10;1.00
5978;DHT22;3015;51.390;12.256;2022-11-12T18:35:22;3.10;99.90
5978;DHT22;3015;51.390;12.256;2022-11-12T18:37:47;3.00;1.00
5978;DHT22;3015;51.390;12.256;2022-11-12T18:40:13;3.00;1.00
5978;DHT22;3015;51.390;12.256;2022-11-12T18:42:39;3.00;99.90
5978;DHT22;3015;51.390;12.256;2022-11-12T18:45:04;3.00;53.10
5978;DHT22;3015;51.390;12.256;2022-11-12T18:47:30;2.90;1.00
5978;DHT22;3015;51.390;12.256;2022-11-12T18:49:56;2.80;1.00
5978;DHT22;3015;51.390;12.256;2022-11-12T18:52:22;2.80;99.90